sensor_id;sensor_type;location;lat;lon;timestamp;P1;durP1;ratioP1;P2;durP2;ratioP2
39554;SDS011;25231;48.746;9.234;2023-04-02T00:09:42;14.07;;;13.03;;
39554;SDS011;25231;48.746;9.234;2023-04-02T00:11:53;57.13;;;34.93;;
39554;SDS011;25231;48.746;9.234;2023-04-02T00:14:24;26.43;;;23.60;;
39554;SDS011;25231;48.746;9.234;2023-04-02T00:16:57;322.50;;;111.50;;
39554;SDS011;25231;48.746;9.234;2023-04-02T00:19:45;340.07;;;108.77;;
39554;SDS011;25231;48.746;9.234;2023-04-02T00:22:17;444.87;;;124.07;;
39554;SDS011;25231;48.746;9.234;2023-04-02T00:24:43;51.87;;;36.63;;
39554;SDS011;25231;48.746;9.234;2023-04-02T00:27:10;293.40;;;98.27;;
39554;SDS011;25231;48.746;9.234;2023-04-02T00:29:45;440.73;;;139.17;;
39554;SDS011;25231;48.746;9.234;2023-04-02T00:32:14;90.83;;;59.67;;
39554;SDS011;25231;48.746;9.234;2023-04-02T00:34:45;101.73;;;53.73;;
39554;SDS011;25231;48.746;9.234;2023-04-02T00:37:14;367.70;;;125.13;;
39554;SDS011;25231;48.746;9.234;2023-04-02T00:39:48;179.17;;;102.07;;
39554;SDS011;25231;48.746;9.234;2023-04-02T00:42:15;124.10;;;66.03;;
39554;SDS011;25231;48.746;9.234;2023-04-02T00:44:43;196.03;;;87.67;;
39554;SDS011;25231;48.746;9.234;2023-04-02T00:47:31;422.13;;;107.00;;
39554;SDS011;25231;48.746;9.234;2023-04-02T00:50:04;264.10;;;69.63;;
39554;SDS011;25231;48.746;9.234;2023-04-02T00:52:42;447.10;;;128.37;;
39554;SDS011;25231;48.746;9.234;2023-04-02T00:55:14;94.37;;;66.57;;
39554;SDS011;25231;48.746;9.234;2023-04-02T00:57:45;69.17;;;51.97;;
39554;SDS011;25231;48.746;9.234;2023-04-02T01:00:19;42.10;;;35.33;;
39554;SDS011;25231;48.746;9.234;2023-04-02T01:05:44;24.23;;;20.60;;
39554;SDS011;25231;48.746;9.234;2023-04-02T01:08:29;22.00;;;20.10;;
39554;SDS011;25231;48.746;9.234;2023-04-02T01:11:12;25.93;;;20.57;;
39554;SDS011;25231;48.746;9.234;2023-04-02T01:14:11;41.70;;;36.33;;
39554;SDS011;25231;48.746;9.234;2023-04-02T01:22:36;58.93;;;44.50;;
39554;SDS011;25231;48.746;9.234;2023-04-02T01:25:14;147.57;;;91.27;;
39554;SDS011;25231;48.746;9.234;2023-04-02T01:27:50;90.30;;;68.27;;
39554;SDS011;25231;48.746;9.234;2023-04-02T01:30:21;32.43;;;29.20;;
39554;SDS011;25231;48.746;9.234;2023-04-02T01:32:48;10.60;;;9.57;;
39554;SDS011;25231;48.746;9.234;2023-04-02T01:35:13;0.60;;;0.60;;
39554;SDS011;25231;48.746;9.234;2023-04-02T01:37:49;0.80;;;0.80;;
39554;SDS011;25231;48.746;9.234;2023-04-02T01:43:25;53.00;;;38.37;;
39554;SDS011;25231;48.746;9.234;2023-04-02T01:45:56;1.63;;;1.63;;
39554;SDS011;25231;48.746;9.234;2023-04-02T01:48:23;69.97;;;46.40;;
39554;SDS011;25231;48.746;9.234;2023-04-02T01:50:54;53.63;;;45.93;;
39554;SDS011;25231;48.746;9.234;2023-04-02T01:53:22;398.53;;;107.53;;
39554;SDS011;25231;48.746;9.234;2023-04-02T01:55:52;356.90;;;90.20;;
39554;SDS011;25231;48.746;9.234;2023-04-02T01:58:23;388.33;;;74.30;;
39554;SDS011;25231;48.746;9.234;2023-04-02T02:00:54;368.43;;;80.47;;
39554;SDS011;25231;48.746;9.234;2023-04-02T02:03:25;389.20;;;71.83;;
39554;SDS011;25231;48.746;9.234;2023-04-02T02:05:51;333.03;;;63.47;;
39554;SDS011;25231;48.746;9.234;2023-04-02T02:08:22;398.47;;;68.13;;
39554;SDS011;25231;48.746;9.234;2023-04-02T02:10:56;359.47;;;65.37;;
39554;SDS011;25231;48.746;9.234;2023-04-02T02:13:22;368.97;;;69.57;;
39554;SDS011;25231;48.746;9.234;2023-04-02T02:15:48;358.67;;;62.83;;
39554;SDS011;25231;48.746;9.234;2023-04-02T02:18:14;396.97;;;70.07;;
39554;SDS011;25231;48.746;9.234;2023-04-02T02:20:43;393.73;;;64.57;;
39554;SDS011;25231;48.746;9.234;2023-04-02T02:23:09;395.40;;;64.33;;
39554;SDS011;25231;48.746;9.234;2023-04-02T02:25:36;397.20;;;67.57;;
39554;SDS011;25231;48.746;9.234;2023-04-02T02:28:08;396.70;;;65.43;;
39554;SDS011;25231;48.746;9.234;2023-04-02T02:31:02;400.20;;;67.27;;
39554;SDS011;25231;48.746;9.234;2023-04-02T02:33:31;402.13;;;69.70;;
39554;SDS011;25231;48.746;9.234;2023-04-02T02:46:39;0.50;;;0.50;;
39554;SDS011;25231;48.746;9.234;2023-04-02T02:49:12;2.50;;;2.40;;
39554;SDS011;25231;48.746;9.234;2023-04-02T02:51:57;1.43;;;1.33;;
39554;SDS011;25231;48.746;9.234;2023-04-02T02:54:36;11.17;;;10.13;;
39554;SDS011;25231;48.746;9.234;2023-04-02T02:57:06;3.30;;;3.03;;
39554;SDS011;25231;48.746;9.234;2023-04-02T02:59:38;313.60;;;56.53;;
39554;SDS011;25231;48.746;9.234;2023-04-02T03:02:04;397.40;;;68.40;;
39554;SDS011;25231;48.746;9.234;2023-04-02T03:04:33;382.90;;;66.47;;
39554;SDS011;25231;48.746;9.234;2023-04-02T03:07:00;161.93;;;34.87;;
39554;SDS011;25231;48.746;9.234;2023-04-02T03:12:44;324.87;;;57.53;;
39554;SDS011;25231;48.746;9.234;2023-04-02T03:15:34;400.70;;;65.27;;
39554;SDS011;25231;48.746;9.234;2023-04-02T03:18:06;276.67;;;57.77;;
39554;SDS011;25231;48.746;9.234;2023-04-02T03:20:48;374.60;;;65.40;;
39554;SDS011;25231;48.746;9.234;2023-04-02T03:23:22;402.67;;;66.87;;
39554;SDS011;25231;48.746;9.234;2023-04-02T03:28:27;21.93;;;14.97;;
39554;SDS011;25231;48.746;9.234;2023-04-02T03:36:50;404.97;;;67.93;;
39554;SDS011;25231;48.746;9.234;2023-04-02T03:42:06;323.00;;;61.00;;
39554;SDS011;25231;48.746;9.234;2023-04-02T03:44:42;264.47;;;52.13;;
39554;SDS011;25231;48.746;9.234;2023-04-02T03:53:21;409.30;;;68.67;;
39554;SDS011;25231;48.746;9.234;2023-04-02T03:55:47;406.00;;;72.83;;
39554;SDS011;25231;48.746;9.234;2023-04-02T03:58:23;404.77;;;66.90;;
39554;SDS011;25231;48.746;9.234;2023-04-02T04:03:52;4.20;;;4.00;;
39554;SDS011;25231;48.746;9.234;2023-04-02T04:06:21;1.80;;;1.73;;
39554;SDS011;25231;48.746;9.234;2023-04-02T04:11:29;12.67;;;11.97;;
39554;SDS011;25231;48.746;9.234;2023-04-02T04:14:02;1.63;;;1.60;;
39554;SDS011;25231;48.746;9.234;2023-04-02T04:16:38;83.93;;;34.13;;
39554;SDS011;25231;48.746;9.234;2023-04-02T04:19:21;146.37;;;45.10;;
39554;SDS011;25231;48.746;9.234;2023-04-02T04:22:06;32.93;;;29.53;;
39554;SDS011;25231;48.746;9.234;2023-04-02T04:24:39;9.93;;;9.23;;
39554;SDS011;25231;48.746;9.234;2023-04-02T04:30:01;2.70;;;2.37;;
39554;SDS011;25231;48.746;9.234;2023-04-02T04:32:35;0.30;;;0.30;;
39554;SDS011;25231;48.746;9.234;2023-04-02T04:35:18;0.10;;;0.10;;
39554;SDS011;25231;48.746;9.234;2023-04-02T04:37:47;0.20;;;0.20;;
39554;SDS011;25231;48.746;9.234;2023-04-02T04:40:23;0.20;;;0.20;;
39554;SDS011;25231;48.746;9.234;2023-04-02T04:42:53;0.17;;;0.17;;
39554;SDS011;25231;48.746;9.234;2023-04-02T04:47:54;0.20;;;0.20;;
39554;SDS011;25231;48.746;9.234;2023-04-02T04:52:56;0.20;;;0.20;;
39554;SDS011;25231;48.746;9.234;2023-04-02T05:09:09;0.20;;;0.20;;
39554;SDS011;25231;48.746;9.234;2023-04-02T05:11:45;0.20;;;0.20;;
39554;SDS011;25231;48.746;9.234;2023-04-02T05:17:35;0.10;;;0.10;;
39554;SDS011;25231;48.746;9.234;2023-04-02T05:20:15;0.10;;;0.10;;
39554;SDS011;25231;48.746;9.234;2023-04-02T05:22:52;0.10;;;0.10;;
39554;SDS011;25231;48.746;9.234;2023-04-02T05:32:53;0.10;;;0.10;;
39554;SDS011;25231;48.746;9.234;2023-04-02T05:35:28;0.10;;;0.10;;
39554;SDS011;25231;48.746;9.234;2023-04-02T05:37:58;0.20;;;0.20;;
39554;SDS011;25231;48.746;9.234;2023-04-02T05:40:30;0.10;;;0.10;;
39554;SDS011;25231;48.746;9.234;2023-04-02T05:43:00;0.10;;;0.10;;
39554;SDS011;25231;48.746;9.234;2023-04-02T05:45:32;0.20;;;0.20;;
39554;SDS011;25231;48.746;9.234;2023-04-02T05:48:02;0.20;;;0.20;;
39554;SDS011;25231;48.746;9.234;2023-04-02T05:50:40;0.10;;;0.10;;
39554;SDS011;25231;48.746;9.234;2023-04-02T05:53:14;0.10;;;0.10;;
39554;SDS011;25231;48.746;9.234;2023-04-02T05:55:49;0.10;;;0.10;;
39554;SDS011;25231;48.746;9.234;2023-04-02T05:58:26;0.03;;;0.03;;
39554;SDS011;25231;48.746;9.234;2023-04-02T06:09:11;0.10;;;0.10;;
39554;SDS011;25231;48.746;9.234;2023-04-02T06:11:45;0.10;;;0.10;;
39554;SDS011;25231;48.746;9.234;2023-04-02T06:14:15;0.20;;;0.20;;
39554;SDS011;25231;48.746;9.234;2023-04-02T06:16:42;0.10;;;0.10;;
39554;SDS011;25231;48.746;9.234;2023-04-02T06:19:13;0.10;;;0.10;;
39554;SDS011;25231;48.746;9.234;2023-04-02T06:21:46;0.10;;;0.10;;
39554;SDS011;25231;48.746;9.234;2023-04-02T06:24:14;0.10;;;0.10;;
39554;SDS011;25231;48.746;9.234;2023-04-02T06:26:44;0.10;;;0.10;;
39554;SDS011;25231;48.746;9.234;2023-04-02T06:32:02;0.10;;;0.10;;
39554;SDS011;25231;48.746;9.234;2023-04-02T06:34:30;0.10;;;0.10;;
39554;SDS011;25231;48.746;9.234;2023-04-02T06:36:57;0.10;;;0.10;;
39554;SDS011;25231;48.746;9.234;2023-04-02T06:39:26;0.10;;;0.10;;
39554;SDS011;25231;48.746;9.234;2023-04-02T06:42:11;0.10;;;0.10;;
39554;SDS011;25231;48.746;9.234;2023-04-02T06:44:40;0.10;;;0.10;;
39554;SDS011;25231;48.746;9.234;2023-04-02T06:47:51;0.10;;;0.10;;
39554;SDS011;25231;48.746;9.234;2023-04-02T06:50:04;0.17;;;0.17;;
39554;SDS011;25231;48.746;9.234;2023-04-02T06:52:42;0.00;;;0.00;;
39554;SDS011;25231;48.746;9.234;2023-04-02T06:55:23;0.10;;;0.10;;
39554;SDS011;25231;48.746;9.234;2023-04-02T06:57:54;0.10;;;0.10;;
39554;SDS011;25231;48.746;9.234;2023-04-02T07:03:02;0.10;;;0.10;;
39554;SDS011;25231;48.746;9.234;2023-04-02T07:05:30;0.10;;;0.10;;
39554;SDS011;25231;48.746;9.234;2023-04-02T07:07:55;0.10;;;0.10;;
39554;SDS011;25231;48.746;9.234;2023-04-02T07:10:21;0.00;;;0.00;;
39554;SDS011;25231;48.746;9.234;2023-04-02T07:12:46;0.03;;;0.03;;
39554;SDS011;25231;48.746;9.234;2023-04-02T07:15:15;0.10;;;0.10;;
39554;SDS011;25231;48.746;9.234;2023-04-02T07:17:43;0.10;;;0.10;;
39554;SDS011;25231;48.746;9.234;2023-04-02T07:20:31;0.10;;;0.10;;
39554;SDS011;25231;48.746;9.234;2023-04-02T07:22:56;0.10;;;0.10;;
39554;SDS011;25231;48.746;9.234;2023-04-02T07:25:22;0.10;;;0.10;;
39554;SDS011;25231;48.746;9.234;2023-04-02T07:27:49;0.10;;;0.10;;
39554;SDS011;25231;48.746;9.234;2023-04-02T07:30:15;0.00;;;0.00;;
39554;SDS011;25231;48.746;9.234;2023-04-02T07:32:41;0.03;;;0.03;;
39554;SDS011;25231;48.746;9.234;2023-04-02T07:35:06;0.10;;;0.10;;
39554;SDS011;25231;48.746;9.234;2023-04-02T07:37:34;0.10;;;0.10;;
39554;SDS011;25231;48.746;9.234;2023-04-02T07:39:59;0.00;;;0.00;;
39554;SDS011;25231;48.746;9.234;2023-04-02T07:42:25;0.10;;;0.10;;
39554;SDS011;25231;48.746;9.234;2023-04-02T07:44:50;0.00;;;0.00;;
39554;SDS011;25231;48.746;9.234;2023-04-02T07:47:15;0.00;;;0.00;;
39554;SDS011;25231;48.746;9.234;2023-04-02T07:49:40;0.10;;;0.10;;
39554;SDS011;25231;48.746;9.234;2023-04-02T07:52:06;0.10;;;0.10;;
39554;SDS011;25231;48.746;9.234;2023-04-02T07:54:31;0.10;;;0.10;;
39554;SDS011;25231;48.746;9.234;2023-04-02T07:56:57;0.00;;;0.00;;
39554;SDS011;25231;48.746;9.234;2023-04-02T07:59:22;0.00;;;0.00;;
39554;SDS011;25231;48.746;9.234;2023-04-02T08:01:47;0.07;;;0.07;;
39554;SDS011;25231;48.746;9.234;2023-04-02T08:04:17;0.10;;;0.10;;
39554;SDS011;25231;48.746;9.234;2023-04-02T08:06:47;0.00;;;0.00;;
39554;SDS011;25231;48.746;9.234;2023-04-02T08:09:13;0.03;;;0.03;;
39554;SDS011;25231;48.746;9.234;2023-04-02T08:11:40;0.00;;;0.00;;
39554;SDS011;25231;48.746;9.234;2023-04-02T08:14:06;0.00;;;0.00;;
39554;SDS011;25231;48.746;9.234;2023-04-02T08:16:42;0.00;;;0.00;;
39554;SDS011;25231;48.746;9.234;2023-04-02T08:19:13;0.00;;;0.00;;
39554;SDS011;25231;48.746;9.234;2023-04-02T08:21:39;0.20;;;0.20;;
39554;SDS011;25231;48.746;9.234;2023-04-02T08:24:04;0.10;;;0.10;;
39554;SDS011;25231;48.746;9.234;2023-04-02T08:26:30;0.10;;;0.10;;
39554;SDS011;25231;48.746;9.234;2023-04-02T08:28:55;0.20;;;0.20;;
39554;SDS011;25231;48.746;9.234;2023-04-02T08:31:20;0.03;;;0.03;;
39554;SDS011;25231;48.746;9.234;2023-04-02T08:33:47;0.10;;;0.10;;
39554;SDS011;25231;48.746;9.234;2023-04-02T08:36:16;0.10;;;0.10;;
39554;SDS011;25231;48.746;9.234;2023-04-02T08:38:43;0.00;;;0.00;;
39554;SDS011;25231;48.746;9.234;2023-04-02T08:41:09;0.10;;;0.10;;
39554;SDS011;25231;48.746;9.234;2023-04-02T08:44:07;0.00;;;0.00;;
39554;SDS011;25231;48.746;9.234;2023-04-02T08:47:04;0.10;;;0.10;;
39554;SDS011;25231;48.746;9.234;2023-04-02T08:49:47;0.10;;;0.10;;
39554;SDS011;25231;48.746;9.234;2023-04-02T08:52:23;0.00;;;0.00;;
39554;SDS011;25231;48.746;9.234;2023-04-02T08:54:51;0.10;;;0.10;;
39554;SDS011;25231;48.746;9.234;2023-04-02T09:00:17;0.00;;;0.00;;
39554;SDS011;25231;48.746;9.234;2023-04-02T09:03:08;0.10;;;0.10;;
39554;SDS011;25231;48.746;9.234;2023-04-02T09:05:38;0.00;;;0.00;;
39554;SDS011;25231;48.746;9.234;2023-04-02T09:08:24;0.10;;;0.10;;
39554;SDS011;25231;48.746;9.234;2023-04-02T09:13:41;0.20;;;0.20;;
39554;SDS011;25231;48.746;9.234;2023-04-02T09:16:11;0.30;;;0.30;;
39554;SDS011;25231;48.746;9.234;2023-04-02T09:18:38;0.20;;;0.20;;
39554;SDS011;25231;48.746;9.234;2023-04-02T09:21:21;0.60;;;0.60;;
39554;SDS011;25231;48.746;9.234;2023-04-02T09:23:55;0.30;;;0.30;;
39554;SDS011;25231;48.746;9.234;2023-04-02T09:26:23;0.37;;;0.37;;
39554;SDS011;25231;48.746;9.234;2023-04-02T09:28:57;0.20;;;0.20;;
39554;SDS011;25231;48.746;9.234;2023-04-02T09:31:30;0.10;;;0.10;;
39554;SDS011;25231;48.746;9.234;2023-04-02T09:34:01;0.10;;;0.10;;
39554;SDS011;25231;48.746;9.234;2023-04-02T09:36:54;0.10;;;0.10;;
39554;SDS011;25231;48.746;9.234;2023-04-02T09:39:24;0.10;;;0.10;;
39554;SDS011;25231;48.746;9.234;2023-04-02T09:41:50;0.10;;;0.10;;
39554;SDS011;25231;48.746;9.234;2023-04-02T09:44:21;0.10;;;0.10;;
39554;SDS011;25231;48.746;9.234;2023-04-02T09:49:14;0.00;;;0.00;;
39554;SDS011;25231;48.746;9.234;2023-04-02T09:51:42;0.10;;;0.10;;
39554;SDS011;25231;48.746;9.234;2023-04-02T09:54:11;0.10;;;0.10;;
39554;SDS011;25231;48.746;9.234;2023-04-02T09:56:42;0.07;;;0.07;;
39554;SDS011;25231;48.746;9.234;2023-04-02T09:59:24;0.10;;;0.10;;
39554;SDS011;25231;48.746;9.234;2023-04-02T10:07:09;0.10;;;0.10;;
39554;SDS011;25231;48.746;9.234;2023-04-02T10:09:59;0.10;;;0.10;;
39554;SDS011;25231;48.746;9.234;2023-04-02T10:13:08;0.10;;;0.10;;
39554;SDS011;25231;48.746;9.234;2023-04-02T10:15:39;0.10;;;0.10;;
39554;SDS011;25231;48.746;9.234;2023-04-02T10:20:52;0.00;;;0.00;;
39554;SDS011;25231;48.746;9.234;2023-04-02T10:23:19;0.10;;;0.10;;
39554;SDS011;25231;48.746;9.234;2023-04-02T10:34:20;0.10;;;0.10;;
39554;SDS011;25231;48.746;9.234;2023-04-02T10:36:53;0.10;;;0.10;;
39554;SDS011;25231;48.746;9.234;2023-04-02T10:39:24;0.00;;;0.00;;
39554;SDS011;25231;48.746;9.234;2023-04-02T10:42:02;0.00;;;0.00;;
39554;SDS011;25231;48.746;9.234;2023-04-02T10:44:34;0.10;;;0.10;;
39554;SDS011;25231;48.746;9.234;2023-04-02T10:47:17;0.10;;;0.10;;
39554;SDS011;25231;48.746;9.234;2023-04-02T10:52:29;0.00;;;0.00;;
39554;SDS011;25231;48.746;9.234;2023-04-02T10:55:02;0.00;;;0.00;;
39554;SDS011;25231;48.746;9.234;2023-04-02T10:57:36;0.10;;;0.10;;
39554;SDS011;25231;48.746;9.234;2023-04-02T11:07:58;0.10;;;0.10;;
39554;SDS011;25231;48.746;9.234;2023-04-02T11:10:27;0.10;;;0.10;;
39554;SDS011;25231;48.746;9.234;2023-04-02T11:12:58;0.10;;;0.10;;
39554;SDS011;25231;48.746;9.234;2023-04-02T11:15:30;0.10;;;0.10;;
39554;SDS011;25231;48.746;9.234;2023-04-02T11:17:56;0.10;;;0.10;;
39554;SDS011;25231;48.746;9.234;2023-04-02T11:23:10;0.10;;;0.10;;
39554;SDS011;25231;48.746;9.234;2023-04-02T11:25:37;0.00;;;0.00;;
39554;SDS011;25231;48.746;9.234;2023-04-02T11:30:51;0.10;;;0.10;;
39554;SDS011;25231;48.746;9.234;2023-04-02T11:35:55;0.00;;;0.00;;
39554;SDS011;25231;48.746;9.234;2023-04-02T11:45:56;0.10;;;0.10;;
39554;SDS011;25231;48.746;9.234;2023-04-02T11:48:33;0.10;;;0.10;;
39554;SDS011;25231;48.746;9.234;2023-04-02T11:51:00;0.10;;;0.10;;
39554;SDS011;25231;48.746;9.234;2023-04-02T11:53:53;0.10;;;0.10;;
39554;SDS011;25231;48.746;9.234;2023-04-02T11:56:34;0.10;;;0.10;;
39554;SDS011;25231;48.746;9.234;2023-04-02T11:59:11;0.07;;;0.07;;
39554;SDS011;25231;48.746;9.234;2023-04-02T12:07:04;0.00;;;0.00;;
39554;SDS011;25231;48.746;9.234;2023-04-02T12:09:59;0.53;;;0.53;;
39554;SDS011;25231;48.746;9.234;2023-04-02T12:12:36;0.10;;;0.10;;
39554;SDS011;25231;48.746;9.234;2023-04-02T12:15:06;0.10;;;0.10;;
39554;SDS011;25231;48.746;9.234;2023-04-02T12:18:11;0.10;;;0.10;;
39554;SDS011;25231;48.746;9.234;2023-04-02T12:20:50;0.10;;;0.10;;
39554;SDS011;25231;48.746;9.234;2023-04-02T12:23:27;0.10;;;0.10;;
39554;SDS011;25231;48.746;9.234;2023-04-02T12:28:24;0.17;;;0.17;;
39554;SDS011;25231;48.746;9.234;2023-04-02T12:31:00;0.07;;;0.07;;
39554;SDS011;25231;48.746;9.234;2023-04-02T12:33:32;0.10;;;0.10;;
39554;SDS011;25231;48.746;9.234;2023-04-02T12:36:03;2.60;;;2.50;;
39554;SDS011;25231;48.746;9.234;2023-04-02T12:38:34;1.13;;;1.13;;
39554;SDS011;25231;48.746;9.234;2023-04-02T12:43:57;0.10;;;0.10;;
39554;SDS011;25231;48.746;9.234;2023-04-02T12:46:28;0.10;;;0.10;;
39554;SDS011;25231;48.746;9.234;2023-04-02T12:49:00;0.00;;;0.00;;
39554;SDS011;25231;48.746;9.234;2023-04-02T12:51:29;0.10;;;0.10;;
39554;SDS011;25231;48.746;9.234;2023-04-02T12:53:55;0.03;;;0.03;;
39554;SDS011;25231;48.746;9.234;2023-04-02T12:56:21;0.07;;;0.07;;
39554;SDS011;25231;48.746;9.234;2023-04-02T12:58:54;0.00;;;0.00;;
39554;SDS011;25231;48.746;9.234;2023-04-02T13:01:22;0.10;;;0.10;;
39554;SDS011;25231;48.746;9.234;2023-04-02T13:03:58;0.07;;;0.07;;
39554;SDS011;25231;48.746;9.234;2023-04-02T13:06:24;0.10;;;0.10;;
39554;SDS011;25231;48.746;9.234;2023-04-02T13:08:51;0.10;;;0.10;;
39554;SDS011;25231;48.746;9.234;2023-04-02T13:11:18;0.10;;;0.10;;
39554;SDS011;25231;48.746;9.234;2023-04-02T13:13:45;0.10;;;0.10;;
39554;SDS011;25231;48.746;9.234;2023-04-02T13:18:44;0.10;;;0.10;;
39554;SDS011;25231;48.746;9.234;2023-04-02T13:23:43;0.10;;;0.10;;
39554;SDS011;25231;48.746;9.234;2023-04-02T13:26:11;0.10;;;0.10;;
39554;SDS011;25231;48.746;9.234;2023-04-02T13:28:59;0.10;;;0.10;;
39554;SDS011;25231;48.746;9.234;2023-04-02T13:31:41;0.00;;;0.00;;
39554;SDS011;25231;48.746;9.234;2023-04-02T13:34:06;0.00;;;0.00;;
39554;SDS011;25231;48.746;9.234;2023-04-02T13:36:31;0.10;;;0.10;;
39554;SDS011;25231;48.746;9.234;2023-04-02T13:38:57;0.10;;;0.10;;
39554;SDS011;25231;48.746;9.234;2023-04-02T13:41:24;0.00;;;0.00;;
39554;SDS011;25231;48.746;9.234;2023-04-02T13:43:53;0.10;;;0.10;;
39554;SDS011;25231;48.746;9.234;2023-04-02T13:46:22;0.10;;;0.10;;
39554;SDS011;25231;48.746;9.234;2023-04-02T13:48:49;0.00;;;0.00;;
39554;SDS011;25231;48.746;9.234;2023-04-02T13:51:16;0.00;;;0.00;;
39554;SDS011;25231;48.746;9.234;2023-04-02T13:53:43;0.00;;;0.00;;
39554;SDS011;25231;48.746;9.234;2023-04-02T13:56:10;0.10;;;0.10;;
39554;SDS011;25231;48.746;9.234;2023-04-02T13:58:36;0.00;;;0.00;;
39554;SDS011;25231;48.746;9.234;2023-04-02T14:01:01;0.10;;;0.10;;
39554;SDS011;25231;48.746;9.234;2023-04-02T14:03:28;0.10;;;0.10;;
39554;SDS011;25231;48.746;9.234;2023-04-02T14:06:00;0.00;;;0.00;;
39554;SDS011;25231;48.746;9.234;2023-04-02T14:08:50;0.10;;;0.10;;
39554;SDS011;25231;48.746;9.234;2023-04-02T14:19:49;0.10;;;0.10;;
39554;SDS011;25231;48.746;9.234;2023-04-02T14:22:28;0.00;;;0.00;;
39554;SDS011;25231;48.746;9.234;2023-04-02T14:28:19;0.10;;;0.10;;
39554;SDS011;25231;48.746;9.234;2023-04-02T14:50:46;0.10;;;0.10;;
39554;SDS011;25231;48.746;9.234;2023-04-02T14:53:14;0.10;;;0.10;;
39554;SDS011;25231;48.746;9.234;2023-04-02T14:55:46;0.10;;;0.10;;
39554;SDS011;25231;48.746;9.234;2023-04-02T14:58:27;0.10;;;0.10;;
39554;SDS011;25231;48.746;9.234;2023-04-02T15:00:57;0.10;;;0.10;;
39554;SDS011;25231;48.746;9.234;2023-04-02T15:03:31;0.10;;;0.10;;
39554;SDS011;25231;48.746;9.234;2023-04-02T15:06:05;0.00;;;0.00;;
39554;SDS011;25231;48.746;9.234;2023-04-02T15:08:38;0.10;;;0.10;;
39554;SDS011;25231;48.746;9.234;2023-04-02T15:16:28;0.00;;;0.00;;
39554;SDS011;25231;48.746;9.234;2023-04-02T15:19:00;0.10;;;0.10;;
39554;SDS011;25231;48.746;9.234;2023-04-02T15:21:36;0.00;;;0.00;;
39554;SDS011;25231;48.746;9.234;2023-04-02T15:32:39;0.00;;;0.00;;
39554;SDS011;25231;48.746;9.234;2023-04-02T15:38:27;0.10;;;0.10;;
39554;SDS011;25231;48.746;9.234;2023-04-02T15:41:03;0.10;;;0.10;;
39554;SDS011;25231;48.746;9.234;2023-04-02T15:43:47;0.10;;;0.10;;
39554;SDS011;25231;48.746;9.234;2023-04-02T15:49:35;0.10;;;0.10;;
39554;SDS011;25231;48.746;9.234;2023-04-02T16:02:57;0.10;;;0.10;;
39554;SDS011;25231;48.746;9.234;2023-04-02T16:05:35;0.10;;;0.10;;
39554;SDS011;25231;48.746;9.234;2023-04-02T16:10:52;0.00;;;0.00;;
39554;SDS011;25231;48.746;9.234;2023-04-02T16:18:50;0.10;;;0.10;;
39554;SDS011;25231;48.746;9.234;2023-04-02T16:21:23;0.17;;;0.17;;
39554;SDS011;25231;48.746;9.234;2023-04-02T16:23:53;0.10;;;0.10;;
39554;SDS011;25231;48.746;9.234;2023-04-02T16:29:18;0.10;;;0.10;;
39554;SDS011;25231;48.746;9.234;2023-04-02T16:32:02;0.07;;;0.07;;
39554;SDS011;25231;48.746;9.234;2023-04-02T16:45:56;0.07;;;0.07;;
39554;SDS011;25231;48.746;9.234;2023-04-02T16:48:35;0.00;;;0.00;;
39554;SDS011;25231;48.746;9.234;2023-04-02T16:51:20;0.10;;;0.10;;
39554;SDS011;25231;48.746;9.234;2023-04-02T16:53:56;0.10;;;0.10;;
39554;SDS011;25231;48.746;9.234;2023-04-02T17:05:50;0.10;;;0.10;;
39554;SDS011;25231;48.746;9.234;2023-04-02T17:08:21;0.10;;;0.10;;
39554;SDS011;25231;48.746;9.234;2023-04-02T17:10:54;0.10;;;0.10;;
39554;SDS011;25231;48.746;9.234;2023-04-02T17:13:30;0.10;;;0.10;;
39554;SDS011;25231;48.746;9.234;2023-04-02T17:16:11;0.10;;;0.10;;
39554;SDS011;25231;48.746;9.234;2023-04-02T17:18:56;0.10;;;0.10;;
39554;SDS011;25231;48.746;9.234;2023-04-02T17:21:25;0.10;;;0.10;;
39554;SDS011;25231;48.746;9.234;2023-04-02T17:26:57;0.10;;;0.10;;
39554;SDS011;25231;48.746;9.234;2023-04-02T17:29:34;0.10;;;0.10;;
39554;SDS011;25231;48.746;9.234;2023-04-02T17:32:02;0.10;;;0.10;;
39554;SDS011;25231;48.746;9.234;2023-04-02T17:34:36;0.10;;;0.10;;
39554;SDS011;25231;48.746;9.234;2023-04-02T17:37:14;0.10;;;0.10;;
39554;SDS011;25231;48.746;9.234;2023-04-02T17:42:47;0.10;;;0.10;;
39554;SDS011;25231;48.746;9.234;2023-04-02T17:45:38;0.10;;;0.10;;
39554;SDS011;25231;48.746;9.234;2023-04-02T17:48:19;0.10;;;0.10;;
39554;SDS011;25231;48.746;9.234;2023-04-02T17:53:47;0.10;;;0.10;;
39554;SDS011;25231;48.746;9.234;2023-04-02T17:59:13;0.10;;;0.10;;
39554;SDS011;25231;48.746;9.234;2023-04-02T18:10:30;0.10;;;0.10;;
39554;SDS011;25231;48.746;9.234;2023-04-02T18:18:17;0.10;;;0.10;;
39554;SDS011;25231;48.746;9.234;2023-04-02T18:21:06;0.10;;;0.10;;
39554;SDS011;25231;48.746;9.234;2023-04-02T18:23:42;0.20;;;0.20;;
39554;SDS011;25231;48.746;9.234;2023-04-02T18:37:46;0.10;;;0.10;;
39554;SDS011;25231;48.746;9.234;2023-04-02T18:51:31;0.17;;;0.17;;
39554;SDS011;25231;48.746;9.234;2023-04-02T18:54:19;0.20;;;0.20;;
39554;SDS011;25231;48.746;9.234;2023-04-02T18:56:49;0.20;;;0.20;;
39554;SDS011;25231;48.746;9.234;2023-04-02T19:01:55;0.20;;;0.20;;
39554;SDS011;25231;48.746;9.234;2023-04-02T19:04:25;0.20;;;0.20;;
39554;SDS011;25231;48.746;9.234;2023-04-02T19:07:03;0.20;;;0.20;;
39554;SDS011;25231;48.746;9.234;2023-04-02T19:09:39;0.10;;;0.10;;
39554;SDS011;25231;48.746;9.234;2023-04-02T19:12:41;0.20;;;0.20;;
39554;SDS011;25231;48.746;9.234;2023-04-02T19:15:00;0.20;;;0.20;;
39554;SDS011;25231;48.746;9.234;2023-04-02T19:20:07;0.20;;;0.20;;
39554;SDS011;25231;48.746;9.234;2023-04-02T19:25:39;0.20;;;0.20;;
39554;SDS011;25231;48.746;9.234;2023-04-02T19:28:27;0.10;;;0.10;;
39554;SDS011;25231;48.746;9.234;2023-04-02T19:36:18;0.20;;;0.20;;
39554;SDS011;25231;48.746;9.234;2023-04-02T19:44:22;0.20;;;0.20;;
39554;SDS011;25231;48.746;9.234;2023-04-02T19:46:47;0.10;;;0.10;;
39554;SDS011;25231;48.746;9.234;2023-04-02T19:51:43;0.10;;;0.10;;
39554;SDS011;25231;48.746;9.234;2023-04-02T19:54:09;0.10;;;0.10;;
39554;SDS011;25231;48.746;9.234;2023-04-02T19:56:35;0.17;;;0.17;;
39554;SDS011;25231;48.746;9.234;2023-04-02T19:59:00;0.10;;;0.10;;
39554;SDS011;25231;48.746;9.234;2023-04-02T20:01:25;0.13;;;0.13;;
39554;SDS011;25231;48.746;9.234;2023-04-02T20:03:51;0.10;;;0.10;;
39554;SDS011;25231;48.746;9.234;2023-04-02T20:06:16;0.10;;;0.10;;
39554;SDS011;25231;48.746;9.234;2023-04-02T20:08:42;0.20;;;0.20;;
39554;SDS011;25231;48.746;9.234;2023-04-02T20:11:07;0.10;;;0.10;;
39554;SDS011;25231;48.746;9.234;2023-04-02T20:13:33;0.10;;;0.10;;
39554;SDS011;25231;48.746;9.234;2023-04-02T20:16:02;0.10;;;0.10;;
39554;SDS011;25231;48.746;9.234;2023-04-02T20:18:29;0.10;;;0.10;;
39554;SDS011;25231;48.746;9.234;2023-04-02T20:20:55;0.10;;;0.10;;
39554;SDS011;25231;48.746;9.234;2023-04-02T20:23:20;0.20;;;0.20;;
39554;SDS011;25231;48.746;9.234;2023-04-02T20:25:47;0.10;;;0.10;;
39554;SDS011;25231;48.746;9.234;2023-04-02T20:28:20;0.20;;;0.20;;
39554;SDS011;25231;48.746;9.234;2023-04-02T20:30:47;0.10;;;0.10;;
39554;SDS011;25231;48.746;9.234;2023-04-02T20:33:17;0.10;;;0.10;;
39554;SDS011;25231;48.746;9.234;2023-04-02T20:35:45;0.10;;;0.10;;
39554;SDS011;25231;48.746;9.234;2023-04-02T20:38:11;0.30;;;0.30;;
39554;SDS011;25231;48.746;9.234;2023-04-02T20:40:39;0.20;;;0.20;;
39554;SDS011;25231;48.746;9.234;2023-04-02T20:43:06;0.30;;;0.30;;
39554;SDS011;25231;48.746;9.234;2023-04-02T20:45:34;0.10;;;0.10;;